.
WxDataArchive / Data Records for 2006-03-27
2006-03-26 March 2006 2006-03-28

Data Records for Monday, 27 March 2006

Time	Temp	Chill	HIndex	Humid	Dewpt	 Wind 	HiWind	WindDir	Rain 	Barom 
-----	----	-----	------	-----	-----	------	------	-------	-----	----- 
00:00	26.6	26.6	26.6	77	20.4	0	0	---	0.00	30.278 
00:05	26.7	26.7	26.7	76	20.2	0	0	---	0.00	30.278 
00:10	26.6	26.6	26.6	77	20.4	0	0	---	0.00	30.278 
00:15	26.6	26.6	26.6	77	20.4	0	0	---	0.00	30.275 
00:20	26.4	26.4	26.4	77	20.2	0	0	---	0.00	30.275 
00:25	26.3	26.3	26.3	77	20.1	0	0	---	0.00	30.275 
00:30	26.1	26.1	26.1	78	20.2	0	0	---	0.00	30.278 
00:35	26.0	26.0	26.0	78	20.1	0	0	---	0.00	30.278 
00:40	26.0	26.0	26.0	79	20.4	0	0	---	0.00	30.278 
00:45	26.0	26.0	26.0	79	20.4	0	0	---	0.00	30.282 
00:50	26.0	26.0	26.0	79	20.4	0	0	---	0.00	30.282 
00:55	26.0	26.0	26.0	78	20.1	0	0	---	0.00	30.282 
01:00	26.0	26.0	26.0	78	20.1	0	0	---	0.00	30.282 
01:05	25.8	25.8	25.8	78	19.9	0	0	---	0.00	30.282 
01:10	25.7	25.7	25.7	79	20.1	0	0	---	0.00	30.282 
01:15	25.6	25.6	25.6	79	20.0	0	0	---	0.00	30.282 
01:20	25.4	25.4	25.4	79	19.8	0	0	---	0.00	30.282 
01:25	25.3	25.3	25.3	80	20.0	0	0	---	0.00	30.282 
01:30	25.1	25.1	25.1	79	19.5	0	0	---	0.00	30.284 
01:35	25.1	25.1	25.1	79	19.5	0	0	---	0.00	30.284 
01:40	25.1	25.1	25.1	79	19.5	0	0	---	0.00	30.284 
01:45	25.1	25.1	25.1	80	19.8	0	0	---	0.00	30.283 
01:50	25.1	25.1	25.1	80	19.8	0	0	---	0.00	30.283 
01:55	25.1	25.1	25.1	80	19.8	0	0	---	0.00	30.283 
02:00	25.1	25.1	25.1	80	19.8	0	0	---	0.00	30.284 
02:05	25.1	25.1	25.1	80	19.8	0	0	---	0.00	30.284 
02:10	25.1	25.1	25.1	80	19.8	0	0	---	0.00	30.284 
02:15	25.0	25.0	25.0	80	19.7	0	0	---	0.00	30.287 
02:20	24.8	24.8	24.8	80	19.5	0	0	---	0.00	30.287 
02:25	24.7	24.7	24.7	80	19.4	0	0	---	0.00	30.287 
02:30	24.5	24.5	24.5	81	19.5	0	0	---	0.00	30.286 
02:35	24.2	24.2	24.2	81	19.2	0	0	---	0.00	30.286 
02:40	24.1	24.1	24.1	81	19.1	0	0	---	0.00	30.286 
02:45	23.9	23.9	23.9	82	19.2	0	0	---	0.00	30.286 
02:50	23.8	23.8	23.8	82	19.1	0	0	---	0.00	30.286 
02:55	23.8	23.8	23.8	82	19.1	0	0	---	0.00	30.286 
03:00	23.6	23.6	23.6	82	18.9	0	0	---	0.00	30.286 
03:05	23.5	23.5	23.5	82	18.8	0	0	---	0.00	30.286 
03:10	23.5	23.5	23.5	83	19.1	0	0	---	0.00	30.286 
03:15	23.5	23.5	23.5	83	19.1	0	0	---	0.00	30.286 
03:20	23.5	23.5	23.5	83	19.1	0	0	---	0.00	30.286 
03:25	23.3	23.3	23.3	83	18.9	0	0	---	0.00	30.286 
03:30	23.2	23.2	23.2	83	18.8	0	0	---	0.00	30.292 
03:35	23.2	23.2	23.2	83	18.8	0	0	---	0.00	30.292 
03:40	23.0	23.0	23.0	84	18.9	0	0	---	0.00	30.292 
03:45	23.0	23.0	23.0	84	18.9	0	0	---	0.00	30.294 
03:50	23.0	23.0	23.0	84	18.9	0	0	---	0.00	30.294 
03:55	23.0	23.0	23.0	84	18.9	0	0	---	0.00	30.294 
04:00	23.0	23.0	23.0	84	18.9	0	0	---	0.00	30.295 
04:05	23.0	23.0	23.0	84	18.9	0	0	---	0.00	30.295 
04:10	22.9	22.9	22.9	84	18.8	0	0	---	0.00	30.295 
04:15	22.7	22.7	22.7	84	18.6	0	0	---	0.00	30.295 
04:20	22.5	22.5	22.5	84	18.4	0	0	---	0.00	30.295 
04:25	22.5	22.5	22.5	84	18.4	0	0	---	0.00	30.295 
04:30	22.4	22.4	22.4	84	18.3	0	0	---	0.00	30.298 
04:35	22.2	22.2	22.2	84	18.1	0	0	---	0.00	30.298 
04:40	22.1	22.1	22.1	85	18.3	0	0	---	0.00	30.298 
04:45	22.1	22.1	22.1	85	18.3	0	0	---	0.00	30.299 
04:50	21.9	21.9	21.9	85	18.1	0	0	---	0.00	30.299 
04:55	21.8	21.8	21.8	85	18.0	0	0	---	0.00	30.299 
05:00	21.6	21.6	21.6	85	17.8	0	0	---	0.00	30.302 
05:05	21.4	21.4	21.4	86	17.9	0	0	---	0.00	30.302 
05:10	21.4	21.4	21.4	86	17.9	0	0	---	0.00	30.302 
05:15	21.3	21.3	21.3	86	17.8	0	0	---	0.00	30.305 
05:20	21.3	21.3	21.3	86	17.8	0	0	---	0.00	30.305 
05:25	21.1	21.1	21.1	87	17.8	0	0	---	0.00	30.305 
05:30	21.1	21.1	21.1	87	17.8	0	0	---	0.00	30.308 
05:35	21.0	21.0	21.0	87	17.8	0	0	---	0.00	30.308 
05:40	21.0	21.0	21.0	87	17.8	0	0	---	0.00	30.308 
05:45	20.8	20.8	20.8	87	17.6	0	0	---	0.00	30.311 
05:50	20.8	20.8	20.8	88	17.8	0	0	---	0.00	30.311 
05:55	20.8	20.8	20.8	88	17.8	0	0	---	0.00	30.311 
06:00	20.8	20.8	20.8	88	17.8	0	0	---	0.00	30.313 
06:05	20.6	20.6	20.6	88	17.6	0	0	---	0.00	30.313 
06:10	20.5	20.5	20.5	88	17.5	0	0	---	0.00	30.313 
06:15	20.6	20.6	20.6	88	17.6	0	0	---	0.00	30.315 
06:20	20.6	20.6	20.6	88	17.6	0	0	---	0.00	30.315 
06:25	20.8	20.8	20.8	88	17.8	0	0	---	0.00	30.315 
06:30	20.6	20.6	20.6	88	17.6	0	0	---	0.00	30.317 
06:35	20.6	20.6	20.6	88	17.6	0	0	---	0.00	30.317 
06:40	20.5	20.5	20.5	88	17.5	0	0	---	0.00	30.317 
06:45	20.5	20.5	20.5	88	17.5	0	0	---	0.00	30.320 
06:50	20.5	20.5	20.5	88	17.5	0	0	---	0.00	30.320 
06:55	20.6	20.6	20.6	89	17.9	0	0	---	0.00	30.320 
07:00	21.0	21.0	21.0	89	18.3	0	0	---	0.00	30.317 
07:05	21.4	21.4	21.4	89	18.7	0	0	---	0.00	30.317 
07:10	21.9	21.9	21.9	89	19.2	0	0	---	0.00	30.317 
07:15	22.5	22.5	22.5	90	20.0	0	0	---	0.00	30.323 
07:20	23.5	23.5	23.5	91	21.3	0	0	---	0.00	30.323 
07:25	24.1	24.1	24.1	90	21.6	0	0	---	0.00	30.323 
07:30	25.1	25.1	25.1	91	22.9	0	0	---	0.00	30.328 
07:35	26.1	26.1	26.1	89	23.3	0	0	---	0.00	30.328 
07:40	27.2	27.2	27.2	88	24.1	0	0	---	0.00	30.328 
07:45	28.1	28.1	28.1	86	24.5	0	1	292	0.00	30.330 
07:50	28.8	28.8	28.8	82	24.0	0	0	---	0.00	30.330 
07:55	30.0	30.0	30.0	78	24.0	0	1	292	0.00	30.330 
08:00	30.7	30.7	30.7	77	24.4	0	0	---	0.00	30.325 
08:05	31.9	31.9	31.9	76	25.2	0	0	---	0.00	30.325 
08:10	33.1	33.1	33.1	73	25.4	0	2	292	0.00	30.325 
08:15	33.4	33.4	33.4	71	25.0	1	2	292	0.00	30.324 
08:20	33.5	33.5	33.5	73	25.8	1	3	292	0.00	30.324 
08:25	34.0	34.0	34.0	72	25.9	1	3	45	0.00	30.324 
08:30	34.7	34.7	34.7	70	25.9	1	3	45	0.00	30.314 
08:35	35.6	35.6	35.6	68	26.1	1	3	90	0.00	30.314 
08:40	36.3	36.3	36.3	66	26.0	1	3	90	0.00	30.314 
08:45	36.9	36.9	36.9	66	26.6	1	3	112	0.00	30.309 
08:50	37.8	37.8	37.8	62	26.0	1	3	112	0.00	30.309 
08:55	38.6	38.6	38.6	61	26.3	1	3	90	0.00	30.309 
09:00	39.3	39.3	39.3	61	27.0	1	4	90	0.00	30.308 
09:05	39.9	39.9	39.9	60	27.2	1	3	112	0.00	30.308 
09:10	40.3	40.3	40.3	58	26.7	1	3	112	0.00	30.308 
09:15	40.8	40.8	40.8	61	28.4	1	3	112	0.00	30.312 
09:20	41.3	41.3	41.3	58	27.7	1	3	68	0.00	30.312 
09:25	41.9	41.9	41.9	57	27.8	1	3	90	0.00	30.312 
09:30	42.3	42.3	42.3	56	27.7	1	2	68	0.00	30.310 
09:35	42.6	42.6	42.6	58	28.9	1	3	315	0.00	30.310 
09:40	43.1	43.1	43.1	56	28.5	2	4	90	0.00	30.310 
09:45	42.9	42.9	42.9	57	28.7	1	4	225	0.00	30.310 
09:50	43.1	43.1	43.1	57	28.9	2	5	248	0.00	30.310 
09:55	43.9	43.9	43.9	56	29.2	2	3	112	0.00	30.310 
10:00	44.5	44.5	44.5	55	29.3	1	4	22	0.00	30.312 
10:05	44.2	44.2	44.2	56	29.5	2	6	248	0.00	30.312 
10:10	44.1	44.1	44.1	55	29.0	2	6	248	0.00	30.312 
10:15	44.5	44.5	44.5	55	29.3	3	7	248	0.00	30.314 
10:20	45.1	45.1	45.1	52	28.5	3	6	248	0.00	30.314 
10:25	45.5	45.5	45.5	54	29.8	2	6	248	0.00	30.314 
10:30	46.1	46.1	46.1	54	30.4	2	5	270	0.00	30.305 
10:35	46.7	46.7	46.7	52	30.0	2	4	225	0.00	30.305 
10:40	46.8	46.8	46.8	51	29.6	2	5	248	0.00	30.305 
10:45	47.1	47.1	47.1	51	29.9	2	5	248	0.00	30.302 
10:50	47.6	47.6	47.6	51	30.4	2	4	248	0.00	30.302 
10:55	48.2	48.2	48.2	51	30.9	2	4	248	0.00	30.302 
11:00	48.3	48.3	48.3	50	30.5	2	6	248	0.00	30.300 
11:05	47.6	47.6	47.6	49	29.4	2	5	248	0.00	30.300 
11:10	48.0	48.0	48.0	52	31.2	2	5	90	0.00	30.300 
11:15	48.2	48.2	48.2	48	29.4	2	5	270	0.00	30.292 
11:20	48.9	48.9	48.9	46	29.0	2	5	248	0.00	30.292 
11:25	49.2	49.2	49.2	46	29.3	2	4	225	0.00	30.292 
11:30	48.9	48.9	48.9	45	28.5	2	4	90	0.00	30.287 
11:35	48.5	48.5	48.5	43	27.0	3	6	248	0.00	30.287 
11:40	48.5	48.5	48.5	41	25.9	3	5	90	0.00	30.287 
11:45	48.6	48.6	48.6	48	29.8	2	4	68	0.00	30.286 
11:50	49.4	49.4	49.4	44	28.4	3	5	248	0.00	30.286 
11:55	49.6	49.6	49.6	45	29.1	2	5	270	0.00	30.286 
12:00	49.6	49.6	49.6	45	29.1	3	7	90	0.00	30.278 
12:05	49.6	49.6	49.6	41	26.9	1	4	270	0.00	30.278 
12:10	49.4	49.4	49.4	42	27.3	2	4	248	0.00	30.278 
12:15	48.5	48.5	48.5	43	27.0	2	5	248	0.00	30.275 
12:20	48.0	48.0	48.0	45	27.7	1	3	248	0.00	30.275 
12:25	48.0	48.0	48.0	42	26.0	1	4	248	0.00	30.275 
12:30	48.6	48.6	48.6	45	28.2	1	3	135	0.00	30.272 
12:35	49.5	49.5	49.5	47	30.1	2	5	45	0.00	30.272 
12:40	50.4	50.4	50.4	42	28.2	2	4	270	0.00	30.272 
12:45	50.1	50.1	50.1	44	29.0	1	4	270	0.00	30.264 
12:50	50.2	50.2	50.2	44	29.1	1	3	158	0.00	30.264 
12:55	50.7	50.7	50.7	43	29.0	1	3	135	0.00	30.264 
13:00	51.1	51.1	51.1	39	27.0	3	6	90	0.00	30.255 
13:05	50.8	50.8	50.8	40	27.4	2	6	90	0.00	30.255 
13:10	51.1	51.1	51.1	39	27.0	2	6	90	0.00	30.255 
13:15	51.6	51.6	51.6	39	27.5	2	5	45	0.00	30.246 
13:20	51.7	51.7	51.7	37	26.3	2	5	90	0.00	30.246 
13:25	51.4	51.4	51.4	39	27.3	2	5	90	0.00	30.246 
13:30	51.1	51.1	51.1	41	28.2	3	6	90	0.00	30.236 
13:35	51.7	51.7	51.7	42	29.4	2	4	68	0.00	30.236 
13:40	52.2	52.2	52.2	37	26.7	1	4	248	0.00	30.236 
13:45	52.3	52.3	52.3	37	26.8	2	5	112	0.00	30.224 
13:50	51.4	51.4	51.4	39	27.3	3	9	90	0.00	30.224 
13:55	50.8	50.8	50.8	36	24.8	4	8	90	0.00	30.224 
14:00	50.7	50.7	50.7	41	27.9	2	5	90	0.00	30.220 
14:05	51.1	51.1	51.1	39	27.0	2	7	112	0.00	30.220 
14:10	51.3	51.3	51.3	38	26.6	3	6	90	0.00	30.220 
14:15	51.6	51.6	51.6	39	27.5	2	6	248	0.00	30.210 
14:20	51.4	51.4	51.4	39	27.3	2	5	68	0.00	30.210 
14:25	51.3	51.3	51.3	38	26.6	1	5	90	0.00	30.210 
14:30	51.3	51.3	51.3	36	25.3	3	5	248	0.00	30.208 
14:35	51.1	51.1	51.1	36	25.1	2	6	112	0.00	30.208 
14:40	51.0	51.0	51.0	39	26.9	2	4	112	0.00	30.208 
14:45	51.1	51.1	51.1	37	25.7	2	5	225	0.00	30.199 
14:50	51.3	51.3	51.3	37	25.9	3	6	90	0.00	30.199 
14:55	51.6	51.6	51.6	37	26.2	2	6	112	0.00	30.199 
15:00	51.9	51.9	51.9	40	28.3	2	7	248	0.00	30.192 
15:05	51.9	51.9	51.9	35	25.1	3	6	90	0.00	30.192 
15:10	51.7	51.7	51.7	35	24.9	3	9	90	0.00	30.192 
15:15	51.6	51.6	51.6	35	24.9	3	8	90	0.00	30.190 
15:20	51.4	51.4	51.4	35	24.7	2	4	90	0.00	30.190 
15:25	51.1	51.1	51.1	37	25.7	2	3	112	0.00	30.190 
15:30	51.4	51.4	51.4	38	26.7	1	3	90	0.00	30.178 
15:35	51.7	51.7	51.7	39	27.6	1	4	90	0.00	30.178 
15:40	52.0	52.0	52.0	38	27.2	2	5	90	0.00	30.178 
15:45	51.6	51.6	51.6	38	26.8	2	6	68	0.00	30.177 
15:50	51.3	51.3	51.3	39	27.2	2	3	112	0.00	30.177 
15:55	51.1	51.1	51.1	40	27.6	1	5	45	0.00	30.177 
16:00	51.0	51.0	51.0	38	26.3	1	6	112	0.00	30.176 
16:05	50.7	50.7	50.7	38	26.0	2	6	45	0.00	30.176 
16:10	50.5	50.5	50.5	39	26.5	2	6	90	0.00	30.176 
16:15	50.4	50.4	50.4	39	26.4	1	3	112	0.00	30.178 
16:20	50.4	50.4	50.4	38	25.8	2	6	112	0.00	30.178 
16:25	50.4	50.4	50.4	40	27.0	1	4	68	0.00	30.178 
16:30	50.2	50.2	50.2	40	26.8	1	3	225	0.00	30.179 
16:35	50.2	50.2	50.2	40	26.8	2	5	135	0.00	30.179 
16:40	50.2	50.2	50.2	42	28.0	1	3	158	0.00	30.179 
16:45	49.9	49.9	49.9	41	27.1	2	5	248	0.00	30.177 
16:50	49.8	49.8	49.8	40	26.5	2	6	248	0.00	30.177 
16:55	49.6	49.6	49.6	41	26.9	2	4	90	0.00	30.177 
17:00	49.5	49.5	49.5	39	25.6	1	4	68	0.00	30.175 
17:05	49.5	49.5	49.5	41	26.8	1	2	248	0.00	30.175 
17:10	49.5	49.5	49.5	40	26.2	1	4	248	0.00	30.175 
17:15	49.2	49.2	49.2	41	26.5	1	4	270	0.00	30.169 
17:20	49.2	49.2	49.2	39	25.3	2	5	248	0.00	30.169 
17:25	49.1	49.1	49.1	41	26.4	0	2	90	0.00	30.169 
17:30	49.1	49.1	49.1	40	25.8	1	4	45	0.00	30.166 
17:35	49.1	49.1	49.1	40	25.8	1	4	112	0.00	30.166 
17:40	48.9	48.9	48.9	41	26.2	1	3	248	0.00	30.166 
17:45	48.8	48.8	48.8	42	26.7	1	4	90	0.00	30.169 
17:50	48.8	48.8	48.8	41	26.2	1	2	68	0.00	30.169 
17:55	48.8	48.8	48.8	42	26.7	1	3	68	0.00	30.169 
18:00	48.6	48.6	48.6	42	26.6	0	2	68	0.00	30.168 
18:05	48.6	48.6	48.6	42	26.6	1	3	68	0.00	30.168 
18:10	48.6	48.6	48.6	42	26.6	1	4	90	0.00	30.168 
18:15	48.6	48.6	48.6	42	26.6	1	3	112	0.00	30.163 
18:20	48.6	48.6	48.6	43	27.1	1	2	90	0.00	30.163 
18:25	48.5	48.5	48.5	43	27.0	1	3	112	0.00	30.163 
18:30	48.5	48.5	48.5	44	27.6	1	2	112	0.00	30.155 
18:35	48.3	48.3	48.3	44	27.4	1	2	112	0.00	30.155 
18:40	48.2	48.2	48.2	45	27.9	1	3	112	0.00	30.155 
18:45	48.0	48.0	48.0	46	28.2	2	7	90	0.00	30.156 
18:50	47.6	47.6	47.6	46	27.9	2	6	270	0.00	30.156 
18:55	47.3	47.3	47.3	48	28.6	2	5	90	0.00	30.156 
19:00	47.1	47.1	47.1	48	28.4	1	4	112	0.00	30.160 
19:05	47.0	47.0	47.0	49	28.8	1	2	112	0.00	30.160 
19:10	46.8	46.8	46.8	49	28.7	1	3	112	0.00	30.160 
19:15	46.7	46.7	46.7	49	28.6	1	5	112	0.00	30.155 
19:20	46.7	46.7	46.7	49	28.6	2	9	90	0.00	30.155 
19:25	46.7	46.7	46.7	49	28.6	1	4	90	0.00	30.155 
19:30	46.5	46.5	46.5	49	28.4	1	3	90	0.00	30.147 
19:35	46.5	46.5	46.5	50	28.9	0	2	112	0.00	30.147 
19:40	46.2	46.2	46.2	51	29.1	1	2	112	0.00	30.147 
19:45	46.1	46.1	46.1	52	29.5	1	2	112	0.00	30.144 
19:50	46.0	46.0	46.0	52	29.4	1	3	112	0.00	30.144 
19:55	46.0	46.0	46.0	53	29.8	0	1	112	0.00	30.144 
20:00	45.8	45.8	45.8	53	29.7	0	2	112	0.00	30.146 
20:05	45.7	45.7	45.7	54	30.0	0	1	112	0.00	30.146 
20:10	45.5	45.5	45.5	53	29.4	2	3	112	0.00	30.146 
20:15	45.5	45.5	45.5	53	29.4	0	3	112	0.00	30.135 
20:20	45.7	45.7	45.7	53	29.6	1	4	90	0.00	30.135 
20:25	45.5	45.5	45.5	53	29.4	1	3	90	0.00	30.135 
20:30	45.5	45.5	45.5	54	29.8	1	3	90	0.00	30.130 
20:35	45.5	45.5	45.5	53	29.4	2	4	90	0.00	30.130 
20:40	45.5	45.5	45.5	53	29.4	2	4	90	0.00	30.130 
20:45	45.4	45.4	45.4	53	29.3	1	3	90	0.00	30.136 
20:50	45.4	45.4	45.4	53	29.3	2	4	112	0.00	30.136 
20:55	45.2	45.2	45.2	54	29.6	2	5	112	0.00	30.136 
21:00	45.1	45.1	45.1	55	29.9	1	3	112	0.00	30.135 
21:05	44.9	44.9	44.9	56	30.2	2	5	90	0.00	30.135 
21:10	44.9	44.9	44.9	57	30.6	2	4	112	0.00	30.135 
21:15	44.8	44.8	44.8	58	30.9	2	3	112	0.00	30.132 
21:20	44.6	44.6	44.6	58	30.7	1	3	112	0.00	30.132 
21:25	44.5	44.5	44.5	58	30.7	1	3	158	0.00	30.132 
21:30	44.5	44.5	44.5	58	30.7	1	4	135	0.00	30.131 
21:35	44.3	44.3	44.3	59	30.9	1	2	112	0.00	30.131 
21:40	44.3	44.3	44.3	59	30.9	1	3	90	0.00	30.131 
21:45	44.2	44.2	44.2	61	31.6	0	2	90	0.00	30.130 
21:50	44.2	44.2	44.2	60	31.2	0	2	90	0.00	30.130 
21:55	44.1	44.1	44.1	60	31.1	1	2	90	0.00	30.130 
22:00	44.1	44.1	44.1	60	31.1	1	2	90	0.00	30.128 
22:05	44.1	44.1	44.1	60	31.1	1	2	90	0.00	30.128 
22:10	43.9	43.9	43.9	61	31.3	0	2	90	0.00	30.128 
22:15	43.9	43.9	43.9	62	31.7	1	2	90	0.00	30.121 
22:20	43.8	43.8	43.8	61	31.2	2	3	112	0.00	30.121 
22:25	43.8	43.8	43.8	62	31.6	1	3	112	0.00	30.121 
22:30	43.6	43.6	43.6	62	31.5	2	4	90	0.00	30.115 
22:35	43.5	43.5	43.5	63	31.8	2	5	90	0.00	30.115 
22:40	43.5	43.5	43.5	64	32.1	1	3	68	0.00	30.115 
22:45	43.3	43.3	43.3	64	32.0	2	5	90	0.00	30.115 
22:50	43.2	43.2	43.2	64	31.9	2	5	90	0.00	30.115 
22:55	43.2	43.2	43.2	65	32.2	1	4	90	0.00	30.115 
23:00	43.1	43.1	43.1	65	32.1	1	3	90	0.00	30.116 
23:05	43.1	43.1	43.1	65	32.1	3	4	112	0.00	30.116 
23:10	42.9	42.9	42.9	66	32.3	2	4	112	0.00	30.116 
23:15	42.9	42.9	42.9	66	32.3	2	5	112	0.00	30.114 
23:20	42.8	42.8	42.8	67	32.6	2	6	112	0.00	30.114 
23:25	42.6	42.6	42.6	68	32.8	2	5	90	0.00	30.114 
23:30	42.6	42.6	42.6	70	33.5	2	5	90	0.00	30.109 
23:35	42.5	42.5	42.5	70	33.4	1	3	112	0.00	30.109 
23:40	42.3	42.3	42.3	70	33.2	2	4	112	0.00	30.109 
23:45	42.3	42.3	42.3	70	33.2	2	4	112	0.00	30.102 
23:50	42.3	42.3	42.3	71	33.6	3	6	90	0.00	30.102 
23:55	42.2	42.2	42.2	72	33.8	2	5	90	0.00	30.102 

CoCoRaHS
IN-AL-39
A2 Web Hosting
Creative Commons License
GoDaddy
Look for:

loaded 2017-12-12 01:48:24 • last modified 2010-11-18 10:43:29
Privacy PolicyDisclaimer
• wx.awcolley.com is powered by PmWiki v.2002016 •
• all content (unless otherwise noted) © 2017 A W Colley